sensor_id;sensor_type;location;lat;lon;timestamp;P1;durP1;ratioP1;P2;durP2;ratioP2
44276;SDS011;29973;43.742;1.236;2023-12-14T00:02:20;1.63;;;1.63;;
44276;SDS011;29973;43.742;1.236;2023-12-14T00:04:46;1.80;;;1.80;;
44276;SDS011;29973;43.742;1.236;2023-12-14T00:07:12;1.38;;;1.38;;
44276;SDS011;29973;43.742;1.236;2023-12-14T00:09:40;1.20;;;1.20;;
44276;SDS011;29973;43.742;1.236;2023-12-14T00:12:06;1.20;;;1.20;;
44276;SDS011;29973;43.742;1.236;2023-12-14T00:14:31;0.95;;;0.95;;
44276;SDS011;29973;43.742;1.236;2023-12-14T00:16:57;0.77;;;0.77;;
44276;SDS011;29973;43.742;1.236;2023-12-14T00:19:24;0.60;;;0.60;;
44276;SDS011;29973;43.742;1.236;2023-12-14T00:21:50;0.50;;;0.50;;
44276;SDS011;29973;43.742;1.236;2023-12-14T00:24:15;0.40;;;0.40;;
44276;SDS011;29973;43.742;1.236;2023-12-14T00:26:41;0.40;;;0.40;;
44276;SDS011;29973;43.742;1.236;2023-12-14T00:29:07;0.40;;;0.40;;
44276;SDS011;29973;43.742;1.236;2023-12-14T00:31:32;0.40;;;0.40;;
44276;SDS011;29973;43.742;1.236;2023-12-14T00:33:58;0.40;;;0.40;;
44276;SDS011;29973;43.742;1.236;2023-12-14T00:36:24;1.15;;;1.15;;
44276;SDS011;29973;43.742;1.236;2023-12-14T00:38:49;0.57;;;0.57;;
44276;SDS011;29973;43.742;1.236;2023-12-14T00:41:15;0.50;;;0.50;;
44276;SDS011;29973;43.742;1.236;2023-12-14T00:43:41;0.95;;;0.95;;
44276;SDS011;29973;43.742;1.236;2023-12-14T00:46:07;0.50;;;0.50;;
44276;SDS011;29973;43.742;1.236;2023-12-14T00:48:33;0.40;;;0.40;;
44276;SDS011;29973;43.742;1.236;2023-12-14T00:50:58;0.40;;;0.40;;
44276;SDS011;29973;43.742;1.236;2023-12-14T00:53:24;0.40;;;0.40;;
44276;SDS011;29973;43.742;1.236;2023-12-14T00:55:50;1.33;;;1.33;;
44276;SDS011;29973;43.742;1.236;2023-12-14T00:58:16;0.40;;;0.40;;
44276;SDS011;29973;43.742;1.236;2023-12-14T01:00:41;0.40;;;0.40;;
44276;SDS011;29973;43.742;1.236;2023-12-14T01:03:08;0.60;;;0.60;;
44276;SDS011;29973;43.742;1.236;2023-12-14T01:05:33;0.60;;;0.60;;
44276;SDS011;29973;43.742;1.236;2023-12-14T01:07:59;0.50;;;0.50;;
44276;SDS011;29973;43.742;1.236;2023-12-14T01:10:25;0.47;;;0.47;;
44276;SDS011;29973;43.742;1.236;2023-12-14T01:12:50;0.40;;;0.40;;
44276;SDS011;29973;43.742;1.236;2023-12-14T01:15:16;1.15;;;1.15;;
44276;SDS011;29973;43.742;1.236;2023-12-14T01:17:42;0.40;;;0.40;;
44276;SDS011;29973;43.742;1.236;2023-12-14T01:20:08;0.40;;;0.40;;
44276;SDS011;29973;43.742;1.236;2023-12-14T01:22:34;0.40;;;0.40;;
44276;SDS011;29973;43.742;1.236;2023-12-14T01:24:59;0.45;;;0.45;;
44276;SDS011;29973;43.742;1.236;2023-12-14T01:27:25;0.50;;;0.50;;
44276;SDS011;29973;43.742;1.236;2023-12-14T01:29:51;0.40;;;0.40;;
44276;SDS011;29973;43.742;1.236;2023-12-14T01:32:16;0.40;;;0.40;;
44276;SDS011;29973;43.742;1.236;2023-12-14T01:34:42;0.40;;;0.40;;
44276;SDS011;29973;43.742;1.236;2023-12-14T01:37:08;0.40;;;0.40;;
44276;SDS011;29973;43.742;1.236;2023-12-14T01:39:34;0.40;;;0.40;;
44276;SDS011;29973;43.742;1.236;2023-12-14T01:41:59;0.40;;;0.40;;
44276;SDS011;29973;43.742;1.236;2023-12-14T01:44:25;0.60;;;0.60;;
44276;SDS011;29973;43.742;1.236;2023-12-14T01:46:51;0.40;;;0.40;;
44276;SDS011;29973;43.742;1.236;2023-12-14T01:49:16;0.50;;;0.50;;
44276;SDS011;29973;43.742;1.236;2023-12-14T01:51:42;0.40;;;0.40;;
44276;SDS011;29973;43.742;1.236;2023-12-14T01:54:08;0.50;;;0.50;;
44276;SDS011;29973;43.742;1.236;2023-12-14T01:56:34;1.08;;;1.08;;
44276;SDS011;29973;43.742;1.236;2023-12-14T01:59:00;0.50;;;0.50;;
44276;SDS011;29973;43.742;1.236;2023-12-14T02:01:32;0.50;;;0.50;;
44276;SDS011;29973;43.742;1.236;2023-12-14T02:04:00;0.60;;;0.60;;
44276;SDS011;29973;43.742;1.236;2023-12-14T02:06:26;0.50;;;0.50;;
44276;SDS011;29973;43.742;1.236;2023-12-14T02:08:52;0.50;;;0.50;;
44276;SDS011;29973;43.742;1.236;2023-12-14T02:11:18;0.60;;;0.60;;
44276;SDS011;29973;43.742;1.236;2023-12-14T02:13:43;0.95;;;0.95;;
44276;SDS011;29973;43.742;1.236;2023-12-14T02:16:09;0.70;;;0.70;;
44276;SDS011;29973;43.742;1.236;2023-12-14T02:18:35;0.70;;;0.70;;
44276;SDS011;29973;43.742;1.236;2023-12-14T02:21:00;0.60;;;0.60;;
44276;SDS011;29973;43.742;1.236;2023-12-14T02:23:26;0.70;;;0.70;;
44276;SDS011;29973;43.742;1.236;2023-12-14T02:25:52;0.50;;;0.50;;
44276;SDS011;29973;43.742;1.236;2023-12-14T02:28:17;0.52;;;0.52;;
44276;SDS011;29973;43.742;1.236;2023-12-14T02:30:43;0.50;;;0.50;;
44276;SDS011;29973;43.742;1.236;2023-12-14T02:33:09;0.65;;;0.65;;
44276;SDS011;29973;43.742;1.236;2023-12-14T02:35:34;1.40;;;1.40;;
44276;SDS011;29973;43.742;1.236;2023-12-14T02:38:00;8.70;;;2.88;;
44276;SDS011;29973;43.742;1.236;2023-12-14T02:40:26;1.42;;;1.33;;
44276;SDS011;29973;43.742;1.236;2023-12-14T02:42:52;4.65;;;2.97;;
44276;SDS011;29973;43.742;1.236;2023-12-14T02:45:17;3.47;;;3.25;;
44276;SDS011;29973;43.742;1.236;2023-12-14T02:47:43;14.93;;;4.05;;
44276;SDS011;29973;43.742;1.236;2023-12-14T02:50:09;3.58;;;3.38;;
44276;SDS011;29973;43.742;1.236;2023-12-14T02:52:34;6.32;;;4.05;;
44276;SDS011;29973;43.742;1.236;2023-12-14T02:55:00;10.43;;;9.85;;
44276;SDS011;29973;43.742;1.236;2023-12-14T02:57:26;7.55;;;7.03;;
44276;SDS011;29973;43.742;1.236;2023-12-14T02:59:51;10.48;;;9.52;;
44276;SDS011;29973;43.742;1.236;2023-12-14T03:02:17;8.32;;;7.75;;
44276;SDS011;29973;43.742;1.236;2023-12-14T03:04:43;6.43;;;5.82;;
44276;SDS011;29973;43.742;1.236;2023-12-14T03:07:08;9.80;;;9.20;;
44276;SDS011;29973;43.742;1.236;2023-12-14T03:09:34;8.20;;;6.57;;
44276;SDS011;29973;43.742;1.236;2023-12-14T03:12:00;17.58;;;7.43;;
44276;SDS011;29973;43.742;1.236;2023-12-14T03:14:31;7.10;;;5.03;;
44276;SDS011;29973;43.742;1.236;2023-12-14T03:16:57;6.13;;;5.43;;
44276;SDS011;29973;43.742;1.236;2023-12-14T03:19:23;4.75;;;3.50;;
44276;SDS011;29973;43.742;1.236;2023-12-14T03:21:48;10.80;;;3.20;;
44276;SDS011;29973;43.742;1.236;2023-12-14T03:24:14;8.93;;;8.13;;
44276;SDS011;29973;43.742;1.236;2023-12-14T03:26:40;11.77;;;7.72;;
44276;SDS011;29973;43.742;1.236;2023-12-14T03:29:05;8.90;;;6.20;;
44276;SDS011;29973;43.742;1.236;2023-12-14T03:31:33;5.20;;;4.50;;
44276;SDS011;29973;43.742;1.236;2023-12-14T03:33:59;5.72;;;3.58;;
44276;SDS011;29973;43.742;1.236;2023-12-14T03:36:25;15.25;;;4.63;;
44276;SDS011;29973;43.742;1.236;2023-12-14T03:38:52;6.40;;;3.60;;
44276;SDS011;29973;43.742;1.236;2023-12-14T03:41:18;11.85;;;4.60;;
44276;SDS011;29973;43.742;1.236;2023-12-14T03:43:44;6.65;;;4.45;;
44276;SDS011;29973;43.742;1.236;2023-12-14T03:46:09;5.32;;;4.80;;
44276;SDS011;29973;43.742;1.236;2023-12-14T03:48:35;10.55;;;9.43;;
44276;SDS011;29973;43.742;1.236;2023-12-14T03:51:04;7.28;;;6.45;;
44276;SDS011;29973;43.742;1.236;2023-12-14T03:53:30;7.75;;;3.88;;
44276;SDS011;29973;43.742;1.236;2023-12-14T03:55:59;4.93;;;4.47;;
44276;SDS011;29973;43.742;1.236;2023-12-14T03:58:25;4.93;;;4.35;;
44276;SDS011;29973;43.742;1.236;2023-12-14T04:00:51;7.07;;;4.35;;
44276;SDS011;29973;43.742;1.236;2023-12-14T04:03:17;9.32;;;4.88;;
44276;SDS011;29973;43.742;1.236;2023-12-14T04:05:43;7.28;;;4.57;;
44276;SDS011;29973;43.742;1.236;2023-12-14T04:08:11;12.40;;;5.28;;
44276;SDS011;29973;43.742;1.236;2023-12-14T04:10:37;8.80;;;6.55;;
44276;SDS011;29973;43.742;1.236;2023-12-14T04:13:03;6.88;;;6.13;;
44276;SDS011;29973;43.742;1.236;2023-12-14T04:15:28;8.20;;;6.85;;
44276;SDS011;29973;43.742;1.236;2023-12-14T04:17:54;8.95;;;5.72;;
44276;SDS011;29973;43.742;1.236;2023-12-14T04:20:20;9.48;;;6.75;;
44276;SDS011;29973;43.742;1.236;2023-12-14T04:22:45;5.38;;;4.75;;
44276;SDS011;29973;43.742;1.236;2023-12-14T04:25:12;8.25;;;4.72;;
44276;SDS011;29973;43.742;1.236;2023-12-14T04:27:38;12.82;;;4.93;;
44276;SDS011;29973;43.742;1.236;2023-12-14T04:30:03;7.93;;;5.38;;
44276;SDS011;29973;43.742;1.236;2023-12-14T04:32:30;8.32;;;4.85;;
44276;SDS011;29973;43.742;1.236;2023-12-14T04:34:56;8.00;;;6.47;;
44276;SDS011;29973;43.742;1.236;2023-12-14T04:37:22;7.35;;;5.13;;
44276;SDS011;29973;43.742;1.236;2023-12-14T04:39:47;7.13;;;4.88;;
44276;SDS011;29973;43.742;1.236;2023-12-14T04:42:13;7.13;;;4.53;;
44276;SDS011;29973;43.742;1.236;2023-12-14T04:44:39;15.38;;;11.57;;
44276;SDS011;29973;43.742;1.236;2023-12-14T04:47:04;10.70;;;4.82;;
44276;SDS011;29973;43.742;1.236;2023-12-14T04:49:30;10.20;;;5.63;;
44276;SDS011;29973;43.742;1.236;2023-12-14T04:51:56;9.43;;;4.97;;
44276;SDS011;29973;43.742;1.236;2023-12-14T04:54:21;14.02;;;4.03;;
44276;SDS011;29973;43.742;1.236;2023-12-14T04:56:47;7.90;;;3.90;;
44276;SDS011;29973;43.742;1.236;2023-12-14T04:59:13;9.63;;;4.97;;
44276;SDS011;29973;43.742;1.236;2023-12-14T05:01:38;7.78;;;3.35;;
44276;SDS011;29973;43.742;1.236;2023-12-14T05:04:04;11.20;;;3.97;;
44276;SDS011;29973;43.742;1.236;2023-12-14T05:06:29;11.90;;;3.78;;
44276;SDS011;29973;43.742;1.236;2023-12-14T05:08:58;6.82;;;3.67;;
44276;SDS011;29973;43.742;1.236;2023-12-14T05:11:24;11.82;;;3.63;;
44276;SDS011;29973;43.742;1.236;2023-12-14T05:13:49;7.07;;;3.47;;
44276;SDS011;29973;43.742;1.236;2023-12-14T05:16:15;9.38;;;3.85;;
44276;SDS011;29973;43.742;1.236;2023-12-14T05:18:41;7.47;;;4.07;;
44276;SDS011;29973;43.742;1.236;2023-12-14T05:21:07;7.40;;;3.25;;
44276;SDS011;29973;43.742;1.236;2023-12-14T05:23:32;4.72;;;3.35;;
44276;SDS011;29973;43.742;1.236;2023-12-14T05:25:58;11.93;;;4.53;;
44276;SDS011;29973;43.742;1.236;2023-12-14T05:28:24;7.72;;;5.70;;
44276;SDS011;29973;43.742;1.236;2023-12-14T05:30:50;10.57;;;6.38;;
44276;SDS011;29973;43.742;1.236;2023-12-14T05:33:15;10.52;;;4.05;;
44276;SDS011;29973;43.742;1.236;2023-12-14T05:35:41;13.13;;;5.38;;
44276;SDS011;29973;43.742;1.236;2023-12-14T05:38:07;7.00;;;5.13;;
44276;SDS011;29973;43.742;1.236;2023-12-14T05:40:32;7.05;;;5.28;;
44276;SDS011;29973;43.742;1.236;2023-12-14T05:42:58;12.10;;;5.15;;
44276;SDS011;29973;43.742;1.236;2023-12-14T05:45:24;12.63;;;5.30;;
44276;SDS011;29973;43.742;1.236;2023-12-14T05:47:49;5.97;;;4.65;;
44276;SDS011;29973;43.742;1.236;2023-12-14T05:50:16;15.00;;;6.13;;
44276;SDS011;29973;43.742;1.236;2023-12-14T05:52:41;5.03;;;4.63;;
44276;SDS011;29973;43.742;1.236;2023-12-14T05:55:08;12.15;;;5.03;;
44276;SDS011;29973;43.742;1.236;2023-12-14T05:57:37;7.25;;;6.28;;
44276;SDS011;29973;43.742;1.236;2023-12-14T06:00:03;7.55;;;4.65;;
44276;SDS011;29973;43.742;1.236;2023-12-14T06:02:32;8.00;;;4.47;;
44276;SDS011;29973;43.742;1.236;2023-12-14T06:04:58;6.88;;;4.88;;
44276;SDS011;29973;43.742;1.236;2023-12-14T06:07:24;10.35;;;3.85;;
44276;SDS011;29973;43.742;1.236;2023-12-14T06:09:50;14.43;;;4.10;;
44276;SDS011;29973;43.742;1.236;2023-12-14T06:12:15;10.02;;;3.95;;
44276;SDS011;29973;43.742;1.236;2023-12-14T06:14:41;9.93;;;5.03;;
44276;SDS011;29973;43.742;1.236;2023-12-14T06:17:07;21.10;;;5.38;;
44276;SDS011;29973;43.742;1.236;2023-12-14T06:19:33;21.08;;;5.57;;
44276;SDS011;29973;43.742;1.236;2023-12-14T06:21:58;8.25;;;4.55;;
44276;SDS011;29973;43.742;1.236;2023-12-14T06:24:24;4.28;;;3.67;;
44276;SDS011;29973;43.742;1.236;2023-12-14T06:26:50;10.90;;;4.97;;
44276;SDS011;29973;43.742;1.236;2023-12-14T06:29:16;17.52;;;5.40;;
44276;SDS011;29973;43.742;1.236;2023-12-14T06:31:41;11.93;;;4.65;;
44276;SDS011;29973;43.742;1.236;2023-12-14T06:34:10;11.35;;;4.38;;
44276;SDS011;29973;43.742;1.236;2023-12-14T06:36:35;12.48;;;4.65;;
44276;SDS011;29973;43.742;1.236;2023-12-14T06:39:01;10.48;;;5.20;;
44276;SDS011;29973;43.742;1.236;2023-12-14T06:41:30;11.27;;;4.30;;
44276;SDS011;29973;43.742;1.236;2023-12-14T06:43:56;7.57;;;3.03;;
44276;SDS011;29973;43.742;1.236;2023-12-14T06:46:21;7.30;;;4.60;;
44276;SDS011;29973;43.742;1.236;2023-12-14T06:48:47;8.70;;;4.07;;
44276;SDS011;29973;43.742;1.236;2023-12-14T06:51:13;6.75;;;4.75;;
44276;SDS011;29973;43.742;1.236;2023-12-14T06:53:40;7.55;;;4.35;;
44276;SDS011;29973;43.742;1.236;2023-12-14T06:56:07;14.25;;;4.45;;
44276;SDS011;29973;43.742;1.236;2023-12-14T06:58:40;10.63;;;4.60;;
44276;SDS011;29973;43.742;1.236;2023-12-14T07:01:07;6.22;;;4.82;;
44276;SDS011;29973;43.742;1.236;2023-12-14T07:03:39;8.57;;;4.45;;
44276;SDS011;29973;43.742;1.236;2023-12-14T07:06:06;7.05;;;4.10;;
44276;SDS011;29973;43.742;1.236;2023-12-14T07:08:33;10.18;;;4.97;;
44276;SDS011;29973;43.742;1.236;2023-12-14T07:10:58;7.18;;;4.55;;
44276;SDS011;29973;43.742;1.236;2023-12-14T07:13:24;9.68;;;4.00;;
44276;SDS011;29973;43.742;1.236;2023-12-14T07:15:51;2.47;;;1.70;;
44276;SDS011;29973;43.742;1.236;2023-12-14T07:18:16;6.07;;;4.82;;
44276;SDS011;29973;43.742;1.236;2023-12-14T07:20:42;10.75;;;4.32;;
44276;SDS011;29973;43.742;1.236;2023-12-14T07:23:08;6.28;;;3.65;;
44276;SDS011;29973;43.742;1.236;2023-12-14T07:25:33;8.40;;;3.63;;
44276;SDS011;29973;43.742;1.236;2023-12-14T07:27:59;11.13;;;3.60;;
44276;SDS011;29973;43.742;1.236;2023-12-14T07:30:25;9.85;;;3.88;;
44276;SDS011;29973;43.742;1.236;2023-12-14T07:32:50;8.50;;;3.30;;
44276;SDS011;29973;43.742;1.236;2023-12-14T07:35:16;8.55;;;3.85;;
44276;SDS011;29973;43.742;1.236;2023-12-14T07:37:42;6.72;;;3.45;;
44276;SDS011;29973;43.742;1.236;2023-12-14T07:40:08;6.28;;;3.25;;
44276;SDS011;29973;43.742;1.236;2023-12-14T07:42:34;13.10;;;3.65;;
44276;SDS011;29973;43.742;1.236;2023-12-14T07:45:00;8.45;;;4.28;;
44276;SDS011;29973;43.742;1.236;2023-12-14T07:47:25;8.15;;;3.60;;
44276;SDS011;29973;43.742;1.236;2023-12-14T07:49:51;9.30;;;4.25;;
44276;SDS011;29973;43.742;1.236;2023-12-14T07:52:17;8.93;;;5.03;;
44276;SDS011;29973;43.742;1.236;2023-12-14T07:54:42;11.85;;;4.72;;
44276;SDS011;29973;43.742;1.236;2023-12-14T07:57:08;11.57;;;3.72;;
44276;SDS011;29973;43.742;1.236;2023-12-14T07:59:34;8.85;;;3.78;;
44276;SDS011;29973;43.742;1.236;2023-12-14T08:01:59;11.85;;;4.65;;
44276;SDS011;29973;43.742;1.236;2023-12-14T08:04:25;12.45;;;4.35;;
44276;SDS011;29973;43.742;1.236;2023-12-14T08:06:51;5.55;;;2.65;;
44276;SDS011;29973;43.742;1.236;2023-12-14T08:09:16;12.38;;;3.40;;
44276;SDS011;29973;43.742;1.236;2023-12-14T08:11:42;14.98;;;4.25;;
44276;SDS011;29973;43.742;1.236;2023-12-14T08:14:08;11.52;;;4.43;;
44276;SDS011;29973;43.742;1.236;2023-12-14T08:16:33;14.38;;;4.85;;
44276;SDS011;29973;43.742;1.236;2023-12-14T08:18:59;9.50;;;4.07;;
44276;SDS011;29973;43.742;1.236;2023-12-14T08:21:25;9.43;;;4.30;;
44276;SDS011;29973;43.742;1.236;2023-12-14T08:23:50;20.38;;;4.68;;
44276;SDS011;29973;43.742;1.236;2023-12-14T08:26:16;8.13;;;4.32;;
44276;SDS011;29973;43.742;1.236;2023-12-14T08:28:42;11.07;;;3.90;;
44276;SDS011;29973;43.742;1.236;2023-12-14T08:31:08;16.17;;;6.28;;
44276;SDS011;29973;43.742;1.236;2023-12-14T08:33:35;6.82;;;4.30;;
44276;SDS011;29973;43.742;1.236;2023-12-14T08:36:02;7.88;;;3.03;;
44276;SDS011;29973;43.742;1.236;2023-12-14T08:38:27;15.18;;;7.68;;
44276;SDS011;29973;43.742;1.236;2023-12-14T08:40:53;10.07;;;7.85;;
44276;SDS011;29973;43.742;1.236;2023-12-14T08:43:19;11.05;;;7.28;;
44276;SDS011;29973;43.742;1.236;2023-12-14T08:45:44;8.75;;;3.20;;
44276;SDS011;29973;43.742;1.236;2023-12-14T08:48:10;8.63;;;4.07;;
44276;SDS011;29973;43.742;1.236;2023-12-14T08:53:11;4.13;;;2.33;;
44276;SDS011;29973;43.742;1.236;2023-12-14T08:55:37;6.47;;;2.80;;
44276;SDS011;29973;43.742;1.236;2023-12-14T08:58:03;6.07;;;2.92;;
44276;SDS011;29973;43.742;1.236;2023-12-14T09:00:28;9.07;;;3.63;;
44276;SDS011;29973;43.742;1.236;2023-12-14T09:02:54;8.73;;;3.05;;
44276;SDS011;29973;43.742;1.236;2023-12-14T09:05:20;11.38;;;3.33;;
44276;SDS011;29973;43.742;1.236;2023-12-14T09:07:46;9.00;;;3.40;;
44276;SDS011;29973;43.742;1.236;2023-12-14T09:10:12;7.85;;;3.75;;
44276;SDS011;29973;43.742;1.236;2023-12-14T09:12:38;4.28;;;2.40;;
44276;SDS011;29973;43.742;1.236;2023-12-14T09:15:03;4.68;;;2.85;;
44276;SDS011;29973;43.742;1.236;2023-12-14T09:17:30;5.15;;;2.45;;
44276;SDS011;29973;43.742;1.236;2023-12-14T09:19:58;11.63;;;3.17;;
44276;SDS011;29973;43.742;1.236;2023-12-14T09:22:24;11.63;;;4.05;;
44276;SDS011;29973;43.742;1.236;2023-12-14T09:24:51;10.85;;;3.28;;
44276;SDS011;29973;43.742;1.236;2023-12-14T09:27:16;7.35;;;2.40;;
44276;SDS011;29973;43.742;1.236;2023-12-14T09:29:42;9.55;;;3.17;;
44276;SDS011;29973;43.742;1.236;2023-12-14T09:32:08;6.57;;;2.80;;
44276;SDS011;29973;43.742;1.236;2023-12-14T09:34:34;11.75;;;2.75;;
44276;SDS011;29973;43.742;1.236;2023-12-14T09:37:00;6.38;;;2.13;;
44276;SDS011;29973;43.742;1.236;2023-12-14T09:39:26;7.47;;;2.53;;
44276;SDS011;29973;43.742;1.236;2023-12-14T09:41:53;7.88;;;2.30;;
44276;SDS011;29973;43.742;1.236;2023-12-14T09:44:30;6.93;;;3.17;;
44276;SDS011;29973;43.742;1.236;2023-12-14T09:46:59;17.25;;;2.85;;
44276;SDS011;29973;43.742;1.236;2023-12-14T09:49:26;8.98;;;3.00;;
44276;SDS011;29973;43.742;1.236;2023-12-14T09:51:54;2.85;;;2.42;;
44276;SDS011;29973;43.742;1.236;2023-12-14T09:54:21;7.10;;;2.83;;
44276;SDS011;29973;43.742;1.236;2023-12-14T09:56:47;8.88;;;2.72;;
44276;SDS011;29973;43.742;1.236;2023-12-14T09:59:13;7.15;;;2.42;;
44276;SDS011;29973;43.742;1.236;2023-12-14T10:01:39;5.80;;;2.45;;
44276;SDS011;29973;43.742;1.236;2023-12-14T10:04:12;6.28;;;2.83;;
44276;SDS011;29973;43.742;1.236;2023-12-14T10:06:40;6.30;;;2.22;;
44276;SDS011;29973;43.742;1.236;2023-12-14T10:09:07;8.43;;;2.55;;
44276;SDS011;29973;43.742;1.236;2023-12-14T10:11:43;13.13;;;3.10;;
44276;SDS011;29973;43.742;1.236;2023-12-14T10:14:25;7.78;;;2.42;;
44276;SDS011;29973;43.742;1.236;2023-12-14T10:16:51;4.70;;;2.50;;
44276;SDS011;29973;43.742;1.236;2023-12-14T10:19:17;7.45;;;2.50;;
44276;SDS011;29973;43.742;1.236;2023-12-14T10:21:44;7.18;;;2.80;;
44276;SDS011;29973;43.742;1.236;2023-12-14T10:24:12;7.75;;;2.67;;
44276;SDS011;29973;43.742;1.236;2023-12-14T10:26:38;6.30;;;2.67;;
44276;SDS011;29973;43.742;1.236;2023-12-14T10:29:03;9.45;;;2.88;;
44276;SDS011;29973;43.742;1.236;2023-12-14T10:31:32;5.25;;;2.40;;
44276;SDS011;29973;43.742;1.236;2023-12-14T10:34:05;4.82;;;2.13;;
44276;SDS011;29973;43.742;1.236;2023-12-14T10:36:32;6.00;;;2.20;;
44276;SDS011;29973;43.742;1.236;2023-12-14T10:38:58;7.57;;;2.38;;
44276;SDS011;29973;43.742;1.236;2023-12-14T10:41:25;5.72;;;2.20;;
44276;SDS011;29973;43.742;1.236;2023-12-14T10:43:53;8.02;;;2.60;;
44276;SDS011;29973;43.742;1.236;2023-12-14T10:46:20;10.23;;;2.88;;
44276;SDS011;29973;43.742;1.236;2023-12-14T10:48:49;11.55;;;2.47;;
44276;SDS011;29973;43.742;1.236;2023-12-14T10:51:20;5.70;;;2.83;;
44276;SDS011;29973;43.742;1.236;2023-12-14T10:53:48;8.80;;;2.50;;
44276;SDS011;29973;43.742;1.236;2023-12-14T10:56:14;4.22;;;2.20;;
44276;SDS011;29973;43.742;1.236;2023-12-14T10:58:52;10.45;;;2.97;;
44276;SDS011;29973;43.742;1.236;2023-12-14T11:01:21;8.68;;;2.20;;
44276;SDS011;29973;43.742;1.236;2023-12-14T11:03:55;7.22;;;2.35;;
44276;SDS011;29973;43.742;1.236;2023-12-14T11:06:31;6.47;;;2.20;;
44276;SDS011;29973;43.742;1.236;2023-12-14T11:09:01;5.95;;;2.40;;
44276;SDS011;29973;43.742;1.236;2023-12-14T11:14:29;6.43;;;2.53;;
44276;SDS011;29973;43.742;1.236;2023-12-14T11:17:02;6.60;;;2.10;;
44276;SDS011;29973;43.742;1.236;2023-12-14T11:19:31;12.18;;;2.38;;
44276;SDS011;29973;43.742;1.236;2023-12-14T11:22:08;9.35;;;2.15;;
44276;SDS011;29973;43.742;1.236;2023-12-14T11:24:37;9.02;;;2.58;;
44276;SDS011;29973;43.742;1.236;2023-12-14T11:27:07;5.03;;;2.30;;
44276;SDS011;29973;43.742;1.236;2023-12-14T11:29:33;3.13;;;2.28;;
44276;SDS011;29973;43.742;1.236;2023-12-14T11:32:02;11.30;;;2.33;;
44276;SDS011;29973;43.742;1.236;2023-12-14T11:34:27;6.57;;;2.30;;
44276;SDS011;29973;43.742;1.236;2023-12-14T11:36:54;4.63;;;2.47;;
44276;SDS011;29973;43.742;1.236;2023-12-14T11:39:20;7.35;;;2.40;;
44276;SDS011;29973;43.742;1.236;2023-12-14T11:42:02;8.45;;;2.22;;
44276;SDS011;29973;43.742;1.236;2023-12-14T11:44:29;3.20;;;1.67;;
44276;SDS011;29973;43.742;1.236;2023-12-14T11:46:55;2.03;;;1.70;;
44276;SDS011;29973;43.742;1.236;2023-12-14T11:49:25;6.32;;;2.20;;
44276;SDS011;29973;43.742;1.236;2023-12-14T11:51:52;6.25;;;2.50;;
44276;SDS011;29973;43.742;1.236;2023-12-14T11:54:20;7.07;;;2.25;;
44276;SDS011;29973;43.742;1.236;2023-12-14T11:56:49;6.47;;;2.22;;
44276;SDS011;29973;43.742;1.236;2023-12-14T11:59:18;4.78;;;1.70;;
44276;SDS011;29973;43.742;1.236;2023-12-14T12:01:57;11.25;;;2.25;;
44276;SDS011;29973;43.742;1.236;2023-12-14T12:04:25;6.88;;;2.35;;
44276;SDS011;29973;43.742;1.236;2023-12-14T12:09:35;6.88;;;2.45;;
44276;SDS011;29973;43.742;1.236;2023-12-14T12:12:05;7.83;;;1.67;;
44276;SDS011;29973;43.742;1.236;2023-12-14T12:14:31;2.08;;;1.70;;
44276;SDS011;29973;43.742;1.236;2023-12-14T12:16:57;7.18;;;1.85;;
44276;SDS011;29973;43.742;1.236;2023-12-14T12:19:22;7.75;;;2.35;;
44276;SDS011;29973;43.742;1.236;2023-12-14T12:21:48;3.25;;;1.95;;
44276;SDS011;29973;43.742;1.236;2023-12-14T12:24:14;7.53;;;2.40;;
44276;SDS011;29973;43.742;1.236;2023-12-14T12:26:40;10.05;;;3.22;;
44276;SDS011;29973;43.742;1.236;2023-12-14T12:29:05;6.22;;;1.77;;
44276;SDS011;29973;43.742;1.236;2023-12-14T12:31:31;6.88;;;1.90;;
44276;SDS011;29973;43.742;1.236;2023-12-14T12:33:58;12.38;;;2.05;;
44276;SDS011;29973;43.742;1.236;2023-12-14T12:36:24;3.63;;;2.05;;
44276;SDS011;29973;43.742;1.236;2023-12-14T12:38:49;5.60;;;2.05;;
44276;SDS011;29973;43.742;1.236;2023-12-14T12:41:16;8.02;;;1.95;;
44276;SDS011;29973;43.742;1.236;2023-12-14T12:43:43;17.30;;;2.35;;
44276;SDS011;29973;43.742;1.236;2023-12-14T12:46:08;7.15;;;1.80;;
44276;SDS011;29973;43.742;1.236;2023-12-14T12:48:35;3.58;;;1.42;;
44276;SDS011;29973;43.742;1.236;2023-12-14T12:51:01;1.98;;;1.25;;
44276;SDS011;29973;43.742;1.236;2023-12-14T12:53:27;7.68;;;1.60;;
44276;SDS011;29973;43.742;1.236;2023-12-14T12:55:53;5.93;;;2.08;;
44276;SDS011;29973;43.742;1.236;2023-12-14T12:58:26;9.63;;;3.25;;
44276;SDS011;29973;43.742;1.236;2023-12-14T13:00:51;8.63;;;1.70;;
44276;SDS011;29973;43.742;1.236;2023-12-14T13:03:17;3.13;;;1.23;;
44276;SDS011;29973;43.742;1.236;2023-12-14T13:05:43;6.30;;;1.92;;
44276;SDS011;29973;43.742;1.236;2023-12-14T13:08:09;3.33;;;1.70;;
44276;SDS011;29973;43.742;1.236;2023-12-14T13:10:35;1.58;;;1.38;;
44276;SDS011;29973;43.742;1.236;2023-12-14T13:13:04;7.47;;;1.92;;
44276;SDS011;29973;43.742;1.236;2023-12-14T13:15:31;5.25;;;1.63;;
44276;SDS011;29973;43.742;1.236;2023-12-14T13:17:57;3.22;;;1.48;;
44276;SDS011;29973;43.742;1.236;2023-12-14T13:20:23;3.25;;;1.42;;
44276;SDS011;29973;43.742;1.236;2023-12-14T13:22:49;8.10;;;1.90;;
44276;SDS011;29973;43.742;1.236;2023-12-14T13:25:15;4.88;;;1.80;;
44276;SDS011;29973;43.742;1.236;2023-12-14T13:27:41;6.88;;;1.88;;
44276;SDS011;29973;43.742;1.236;2023-12-14T13:30:08;7.25;;;1.35;;
44276;SDS011;29973;43.742;1.236;2023-12-14T13:32:34;7.65;;;2.10;;
44276;SDS011;29973;43.742;1.236;2023-12-14T13:34:59;3.15;;;1.45;;
44276;SDS011;29973;43.742;1.236;2023-12-14T13:37:25;4.10;;;1.58;;
44276;SDS011;29973;43.742;1.236;2023-12-14T13:39:51;3.80;;;1.90;;
44276;SDS011;29973;43.742;1.236;2023-12-14T13:42:18;4.53;;;1.40;;
44276;SDS011;29973;43.742;1.236;2023-12-14T13:44:44;5.80;;;1.60;;
44276;SDS011;29973;43.742;1.236;2023-12-14T13:47:10;3.38;;;1.80;;
44276;SDS011;29973;43.742;1.236;2023-12-14T13:49:36;3.88;;;1.48;;
44276;SDS011;29973;43.742;1.236;2023-12-14T13:52:03;4.28;;;1.95;;
44276;SDS011;29973;43.742;1.236;2023-12-14T13:54:29;3.67;;;1.52;;
44276;SDS011;29973;43.742;1.236;2023-12-14T13:56:55;5.75;;;1.63;;
44276;SDS011;29973;43.742;1.236;2023-12-14T13:59:20;5.40;;;1.50;;
44276;SDS011;29973;43.742;1.236;2023-12-14T14:01:46;5.10;;;1.52;;
44276;SDS011;29973;43.742;1.236;2023-12-14T14:04:15;7.22;;;1.90;;
44276;SDS011;29973;43.742;1.236;2023-12-14T14:06:42;3.40;;;1.55;;
44276;SDS011;29973;43.742;1.236;2023-12-14T14:09:08;2.25;;;1.42;;
44276;SDS011;29973;43.742;1.236;2023-12-14T14:11:33;6.10;;;1.60;;
44276;SDS011;29973;43.742;1.236;2023-12-14T14:14:00;5.63;;;1.83;;
44276;SDS011;29973;43.742;1.236;2023-12-14T14:16:26;3.60;;;1.73;;
44276;SDS011;29973;43.742;1.236;2023-12-14T14:18:52;9.05;;;1.60;;
44276;SDS011;29973;43.742;1.236;2023-12-14T14:21:18;6.28;;;1.85;;
44276;SDS011;29973;43.742;1.236;2023-12-14T14:23:43;5.95;;;2.08;;
44276;SDS011;29973;43.742;1.236;2023-12-14T14:26:09;7.43;;;2.28;;
44276;SDS011;29973;43.742;1.236;2023-12-14T14:28:35;9.40;;;2.17;;
44276;SDS011;29973;43.742;1.236;2023-12-14T14:31:01;6.65;;;1.95;;
44276;SDS011;29973;43.742;1.236;2023-12-14T14:33:27;9.05;;;1.35;;
44276;SDS011;29973;43.742;1.236;2023-12-14T14:35:52;9.65;;;1.95;;
44276;SDS011;29973;43.742;1.236;2023-12-14T14:38:18;3.45;;;1.80;;
44276;SDS011;29973;43.742;1.236;2023-12-14T14:40:44;6.20;;;1.70;;
44276;SDS011;29973;43.742;1.236;2023-12-14T14:43:10;3.90;;;1.63;;
44276;SDS011;29973;43.742;1.236;2023-12-14T14:45:36;3.63;;;1.75;;
44276;SDS011;29973;43.742;1.236;2023-12-14T14:48:05;8.43;;;2.28;;
44276;SDS011;29973;43.742;1.236;2023-12-14T14:50:33;7.80;;;2.03;;